createdAt,value
2023-02-13T00:01:54.510Z,47.14
2023-02-13T00:04:21.162Z,47.07
2023-02-13T00:06:50.147Z,46.95
2023-02-13T00:09:16.530Z,47.15
2023-02-13T00:11:42.833Z,47.16
2023-02-13T00:14:09.135Z,47.14
2023-02-13T00:16:35.882Z,46.89
2023-02-13T00:19:02.259Z,46.91
2023-02-13T00:21:28.681Z,47.15
2023-02-13T00:23:55.082Z,47.29
2023-02-13T00:26:22.623Z,47.18
2023-02-13T00:28:49.026Z,47.25
2023-02-13T00:31:17.979Z,47.12
2023-02-13T00:33:44.919Z,47.10
2023-02-13T00:36:14.040Z,47.39
2023-02-13T00:38:42.268Z,47.22
2023-02-13T00:41:09.738Z,47.17
2023-02-13T00:43:36.435Z,46.99
2023-02-13T00:46:03.342Z,47.46
2023-02-13T00:48:32.075Z,47.54
2023-02-13T00:50:59.082Z,47.12
2023-02-13T00:53:26.440Z,47.40
2023-02-13T00:55:53.722Z,47.17
2023-02-13T00:58:20.683Z,47.32
2023-02-13T01:00:47.578Z,47.32
2023-02-13T01:03:15.543Z,47.59
2023-02-13T01:05:42.845Z,47.52
2023-02-13T01:08:10.364Z,47.57
2023-02-13T01:10:41.733Z,47.60
2023-02-13T01:13:09.500Z,47.43
2023-02-13T01:15:36.692Z,47.73
2023-02-13T01:18:03.686Z,47.54
2023-02-13T01:20:30.520Z,47.68
2023-02-13T01:22:57.914Z,47.80
2023-02-13T01:25:24.628Z,47.53
2023-02-13T01:27:51.309Z,47.49
2023-02-13T01:30:18.732Z,47.53
2023-02-13T01:32:46.876Z,47.90
2023-02-13T01:35:14.699Z,47.51
2023-02-13T01:37:42.059Z,47.99
2023-02-13T01:40:11.822Z,47.98
2023-02-13T01:42:38.555Z,47.78
2023-02-13T01:45:25.667Z,48.35
2023-02-13T01:47:59.668Z,48.22
2023-02-13T01:50:36.991Z,48.42
2023-02-13T01:53:12.201Z,48.34
2023-02-13T01:55:52.466Z,48.14
2023-02-13T01:58:22.690Z,48.16
2023-02-13T02:00:50.082Z,47.62
2023-02-13T02:03:22.421Z,47.82
2023-02-13T02:05:51.535Z,48.11
2023-02-13T02:08:19.328Z,48.20
2023-02-13T02:10:46.075Z,47.74
2023-02-13T02:13:17.318Z,47.95
2023-02-13T02:15:43.746Z,47.96
2023-02-13T02:18:15.871Z,48.51
2023-02-13T02:21:10.723Z,48.33
2023-02-13T02:24:05.228Z,48.27
2023-02-13T02:27:05.673Z,48.86
2023-02-13T02:30:03.521Z,48.52
2023-02-13T02:32:51.957Z,48.24
2023-02-13T02:35:47.640Z,48.34
2023-02-13T02:38:41.023Z,48.48
2023-02-13T02:41:37.455Z,47.87
2023-02-13T02:44:22.737Z,48.10
2023-02-13T02:47:22.206Z,48.09
2023-02-13T02:50:02.257Z,47.94
2023-02-13T02:52:43.718Z,48.18
2023-02-13T02:55:24.845Z,48.16
2023-02-13T02:58:32.098Z,48.44
2023-02-13T03:01:20.233Z,47.77
2023-02-13T03:04:06.215Z,47.62
2023-02-13T03:06:40.163Z,47.78
2023-02-13T03:09:32.136Z,47.76
2023-02-13T03:12:17.922Z,47.50
2023-02-13T03:14:45.895Z,47.83
2023-02-13T03:17:34.352Z,47.53
2023-02-13T03:20:19.176Z,47.66
2023-02-13T03:23:20.192Z,48.01
2023-02-13T03:26:33.406Z,47.61
2023-02-13T03:29:30.778Z,47.42
2023-02-13T03:32:14.084Z,47.79
2023-02-13T03:35:15.307Z,47.32
2023-02-13T03:37:56.584Z,47.60
2023-02-13T03:41:07.097Z,48.00
2023-02-13T03:43:44.932Z,47.34
2023-02-13T03:46:12.153Z,47.42
2023-02-13T03:49:00.392Z,47.64
2023-02-13T03:51:56.173Z,47.60
2023-02-13T03:54:51.809Z,47.13
2023-02-13T03:57:39.493Z,47.65
2023-02-13T04:00:10.006Z,47.56
2023-02-13T04:02:41.144Z,47.26
2023-02-13T04:05:17.114Z,47.75
2023-02-13T04:07:43.759Z,47.74
2023-02-13T04:10:14.439Z,47.81
2023-02-13T04:13:02.881Z,47.93
2023-02-13T04:15:43.744Z,47.65
2023-02-13T04:18:17.647Z,47.48
2023-02-13T04:20:44.456Z,47.54
2023-02-13T04:23:12.685Z,47.55
2023-02-13T04:25:42.212Z,47.19
2023-02-13T04:28:08.751Z,47.46
2023-02-13T04:30:35.188Z,47.29
2023-02-13T04:33:01.539Z,47.16
2023-02-13T04:35:28.273Z,47.62
2023-02-13T04:37:54.638Z,47.26
2023-02-13T04:40:21.052Z,47.22
2023-02-13T04:42:49.027Z,46.88
2023-02-13T04:45:15.978Z,46.85
2023-02-13T04:47:42.536Z,47.20
2023-02-13T04:50:09.335Z,46.79
2023-02-13T04:52:36.002Z,47.15
2023-02-13T04:55:02.611Z,47.38
2023-02-13T04:57:29.198Z,46.64
2023-02-13T04:59:55.822Z,46.87
2023-02-13T05:02:22.190Z,47.08
2023-02-13T05:04:48.758Z,47.28
2023-02-13T05:07:15.187Z,47.50
2023-02-13T05:09:41.857Z,47.21
2023-02-13T05:12:08.475Z,47.21
2023-02-13T05:14:34.978Z,47.35
2023-02-13T05:17:01.595Z,47.08
2023-02-13T05:19:28.081Z,47.44
2023-02-13T05:22:13.029Z,46.67
2023-02-13T05:24:39.394Z,46.95
2023-02-13T05:27:05.691Z,47.58
2023-02-13T05:29:32.309Z,47.33
2023-02-13T05:32:00.137Z,47.25
2023-02-13T05:34:28.511Z,46.98
2023-02-13T05:36:55.084Z,47.27
2023-02-13T05:39:22.847Z,46.99
2023-02-13T05:41:49.516Z,46.84
2023-02-13T05:44:16.744Z,46.96
2023-02-13T05:46:45.007Z,47.42
2023-02-13T05:49:13.297Z,47.26
2023-02-13T05:51:40.111Z,46.97
2023-02-13T05:54:06.504Z,47.61
2023-02-13T05:56:32.990Z,47.26
2023-02-13T05:58:59.674Z,47.12
2023-02-13T06:01:26.119Z,47.00
2023-02-13T06:03:52.450Z,47.02
2023-02-13T06:06:18.892Z,47.01
2023-02-13T06:08:45.465Z,46.87
2023-02-13T06:11:12.387Z,47.36
2023-02-13T06:13:40.658Z,47.48
2023-02-13T06:16:11.428Z,47.53
2023-02-13T06:18:37.953Z,47.34
2023-02-13T06:21:04.496Z,47.33
2023-02-13T06:23:31.280Z,47.31
2023-02-13T06:26:02.707Z,47.31
2023-02-13T06:28:29.347Z,47.56
2023-02-13T06:30:56.313Z,47.80
2023-02-13T06:33:23.424Z,47.34
2023-02-13T06:35:50.040Z,47.19
2023-02-13T06:38:19.026Z,47.23
2023-02-13T06:40:49.385Z,47.20
2023-02-13T06:43:16.798Z,47.65
2023-02-13T06:45:43.665Z,47.53
2023-02-13T06:48:10.076Z,47.42
2023-02-13T06:50:36.424Z,47.41
2023-02-13T06:53:03.166Z,47.37
2023-02-13T06:55:29.629Z,47.36
2023-02-13T06:57:55.978Z,47.36
2023-02-13T07:00:26.057Z,47.64
2023-02-13T07:02:52.928Z,47.74
2023-02-13T07:05:19.407Z,47.31
2023-02-13T07:07:45.724Z,47.67
2023-02-13T07:10:14.616Z,46.86
2023-02-13T07:12:41.187Z,47.48
2023-02-13T07:15:08.434Z,47.15
2023-02-13T07:17:35.024Z,47.40
2023-02-13T07:20:01.905Z,47.20
2023-02-13T07:22:28.251Z,47.11
2023-02-13T07:24:54.669Z,46.79
2023-02-13T07:27:21.042Z,46.67
2023-02-13T07:29:47.651Z,46.99
2023-02-13T07:32:14.209Z,46.97
2023-02-13T07:34:52.224Z,46.93
2023-02-13T07:37:28.496Z,47.13
2023-02-13T07:39:54.862Z,46.98
2023-02-13T07:42:21.367Z,46.93
2023-02-13T07:44:47.995Z,47.28
2023-02-13T07:47:14.404Z,47.34
2023-02-13T07:49:40.850Z,47.63
2023-02-13T07:52:07.198Z,47.36
2023-02-13T07:54:33.599Z,47.84
2023-02-13T07:57:00.043Z,47.82
2023-02-13T07:59:26.626Z,47.73
2023-02-13T08:01:53.281Z,47.73
2023-02-13T08:04:19.725Z,47.85
2023-02-13T08:06:46.021Z,47.60
2023-02-13T08:09:39.790Z,47.78
2023-02-13T08:12:08.816Z,47.49
2023-02-13T08:14:35.387Z,47.38
2023-02-13T08:17:02.349Z,46.76
2023-02-13T08:19:28.720Z,47.26
2023-02-13T08:21:55.399Z,47.16
2023-02-13T08:24:22.005Z,46.88
2023-02-13T08:26:48.422Z,47.01
2023-02-13T08:29:14.919Z,47.00
2023-02-13T08:31:41.705Z,47.20
2023-02-13T08:34:08.704Z,46.87
2023-02-13T08:36:35.052Z,47.39
2023-02-13T08:39:01.497Z,47.41
2023-02-13T08:41:27.915Z,47.01
2023-02-13T08:43:54.835Z,46.92
2023-02-13T08:46:21.584Z,46.93
2023-02-13T08:48:48.222Z,46.71
2023-02-13T08:51:14.767Z,47.18
2023-02-13T08:53:42.396Z,47.45
2023-02-13T08:56:09.667Z,46.51
2023-02-13T08:58:36.519Z,47.21
2023-02-13T09:01:07.745Z,47.10
2023-02-13T09:03:35.476Z,47.11
2023-02-13T09:06:03.846Z,47.04
2023-02-13T09:08:30.549Z,47.14
2023-02-13T09:10:59.805Z,46.70
2023-02-13T09:13:26.383Z,46.58
2023-02-13T09:15:52.820Z,46.92
2023-02-13T09:18:20.157Z,47.08
2023-02-13T09:20:46.537Z,46.21
2023-02-13T09:23:12.972Z,46.84
2023-02-13T09:25:39.281Z,47.28
2023-02-13T09:28:05.732Z,47.09
2023-02-13T09:30:32.145Z,46.99
2023-02-13T09:32:58.485Z,46.68
2023-02-13T09:35:24.980Z,46.63
2023-02-13T09:37:51.476Z,46.76
2023-02-13T09:40:37.012Z,46.94
2023-02-13T09:43:37.874Z,46.88
2023-02-13T09:46:13.956Z,46.49
2023-02-13T09:48:44.967Z,46.65
2023-02-13T09:51:17.455Z,46.49
2023-02-13T09:53:52.097Z,46.52
2023-02-13T09:56:31.605Z,46.36
2023-02-13T09:59:23.695Z,46.38
2023-02-13T10:01:52.849Z,46.60
2023-02-13T10:05:10.266Z,46.36
2023-02-13T10:07:58.296Z,46.12
2023-02-13T10:10:33.594Z,46.01
2023-02-13T10:13:12.247Z,45.88
2023-02-13T10:16:12.466Z,45.48
2023-02-13T10:19:30.285Z,45.63
2023-02-13T10:22:05.662Z,45.86
2023-02-13T10:24:39.555Z,45.77
2023-02-13T10:27:21.711Z,45.84
2023-02-13T10:30:07.129Z,45.94
2023-02-13T10:32:45.879Z,45.56
2023-02-13T10:35:27.548Z,45.60
2023-02-13T10:37:58.377Z,45.75
2023-02-13T10:40:32.343Z,45.66
2023-02-13T10:43:04.419Z,45.46
2023-02-13T10:45:57.243Z,45.29
2023-02-13T10:48:35.487Z,45.53
2023-02-13T10:51:18.488Z,45.51
2023-02-13T10:54:03.254Z,45.15
2023-02-13T10:56:48.135Z,44.88
2023-02-13T10:59:43.249Z,44.69
2023-02-13T11:02:15.421Z,45.39
2023-02-13T11:04:43.985Z,44.85
2023-02-13T11:07:17.604Z,45.22
2023-02-13T11:09:47.760Z,44.98
2023-02-13T11:12:29.747Z,44.96
2023-02-13T11:15:05.988Z,44.80
2023-02-13T11:17:36.584Z,44.99
2023-02-13T11:20:08.935Z,44.89
2023-02-13T11:22:39.148Z,45.20
2023-02-13T11:25:26.381Z,44.76
2023-02-13T11:28:08.731Z,44.74
2023-02-13T11:30:37.142Z,44.72
2023-02-13T11:33:29.472Z,44.43
2023-02-13T11:36:30.490Z,44.53
2023-02-13T11:38:58.842Z,44.87
2023-02-13T11:41:26.089Z,44.61
2023-02-13T11:44:01.655Z,44.14
2023-02-13T11:46:49.021Z,44.23
2023-02-13T11:49:20.689Z,44.28
2023-02-13T11:51:50.381Z,44.39
2023-02-13T11:54:34.353Z,43.93
2023-02-13T11:57:05.474Z,44.46
2023-02-13T11:59:40.724Z,43.85
2023-02-13T12:02:18.335Z,43.91
2023-02-13T12:04:45.899Z,43.89
2023-02-13T12:07:30.895Z,43.63
2023-02-13T12:10:02.674Z,43.54
2023-02-13T12:12:35.602Z,43.52
2023-02-13T12:15:17.112Z,43.28
2023-02-13T12:17:46.470Z,43.76
2023-02-13T12:20:15.706Z,43.74
2023-02-13T12:23:01.137Z,43.29
2023-02-13T12:25:33.164Z,43.45
2023-02-13T12:28:13.738Z,43.61
2023-02-13T12:31:01.195Z,43.29
2023-02-13T12:33:58.641Z,43.39
2023-02-13T12:36:36.404Z,43.69
2023-02-13T12:39:25.254Z,43.00
2023-02-13T12:42:03.112Z,43.22
2023-02-13T12:44:38.560Z,42.91
2023-02-13T12:47:31.333Z,42.73
2023-02-13T12:50:37.869Z,42.97
2023-02-13T12:53:29.676Z,43.23
2023-02-13T12:55:56.817Z,43.32
2023-02-13T12:58:44.743Z,43.29
2023-02-13T13:01:32.091Z,42.92
2023-02-13T13:04:21.057Z,43.00
2023-02-13T13:07:24.204Z,42.94
2023-02-13T13:09:56.920Z,43.52
2023-02-13T13:12:36.855Z,42.74
2023-02-13T13:15:31.550Z,43.01
2023-02-13T13:18:19.219Z,42.98
2023-02-13T13:21:12.519Z,43.09
2023-02-13T13:24:05.111Z,43.01
2023-02-13T13:26:46.731Z,42.79
2023-02-13T13:29:21.603Z,43.00
2023-02-13T13:31:57.711Z,42.79
2023-02-13T13:34:25.993Z,43.07
2023-02-13T13:37:06.841Z,42.54
2023-02-13T13:39:52.381Z,42.72
2023-02-13T13:42:31.522Z,43.33
2023-02-13T13:45:06.619Z,42.72
2023-02-13T13:48:06.861Z,42.56
2023-02-13T13:50:39.027Z,42.88
2023-02-13T13:53:15.567Z,42.98
2023-02-13T13:55:48.087Z,42.74
2023-02-13T13:58:24.941Z,42.64
2023-02-13T14:01:30.978Z,42.68
2023-02-13T14:04:00.265Z,42.68
2023-02-13T14:06:48.169Z,42.58
2023-02-13T14:09:26.857Z,42.64
2023-02-13T14:11:55.252Z,42.88
2023-02-13T14:14:27.835Z,42.65
2023-02-13T14:16:59.610Z,42.79
2023-02-13T14:19:32.018Z,42.73
2023-02-13T14:22:20.189Z,42.28
2023-02-13T14:25:07.366Z,42.39
2023-02-13T14:27:38.770Z,42.96
2023-02-13T14:30:22.929Z,42.68
2023-02-13T14:32:49.556Z,43.21
2023-02-13T14:35:29.063Z,42.91
2023-02-13T14:37:59.310Z,42.71
2023-02-13T14:40:30.852Z,42.73
2023-02-13T14:43:19.004Z,42.78
2023-02-13T14:45:54.334Z,42.87
2023-02-13T14:48:25.585Z,43.00
2023-02-13T14:50:54.556Z,42.74
2023-02-13T14:53:29.141Z,42.80
2023-02-13T14:56:14.401Z,42.68
2023-02-13T14:58:49.828Z,42.84
2023-02-13T15:01:28.287Z,42.54
2023-02-13T15:03:59.938Z,43.25
2023-02-13T15:06:29.785Z,42.88
2023-02-13T15:08:59.393Z,42.63
2023-02-13T15:11:43.158Z,42.87
2023-02-13T15:14:22.418Z,42.70
2023-02-13T15:16:54.923Z,43.16
2023-02-13T15:19:23.653Z,43.19
2023-02-13T15:22:01.985Z,43.26
2023-02-13T15:24:36.890Z,43.08
2023-02-13T15:27:06.372Z,42.87
2023-02-13T15:29:47.857Z,42.87
2023-02-13T15:32:21.630Z,43.29
2023-02-13T15:34:48.556Z,42.98
2023-02-13T15:37:27.512Z,42.99
2023-02-13T15:39:53.977Z,43.54
2023-02-13T15:42:20.829Z,43.30
2023-02-13T15:44:50.202Z,43.40
2023-02-13T15:47:23.418Z,42.99
2023-02-13T15:49:50.446Z,43.17
2023-02-13T15:52:31.959Z,43.35
2023-02-13T15:54:58.967Z,43.31
2023-02-13T15:57:27.166Z,43.00
2023-02-13T15:59:55.948Z,43.30
2023-02-13T16:02:29.541Z,43.13
2023-02-13T16:04:56.414Z,43.11
2023-02-13T16:07:22.783Z,43.22
2023-02-13T16:09:49.196Z,43.13
2023-02-13T16:12:23.001Z,43.23
2023-02-13T16:15:00.133Z,43.51
2023-02-13T16:17:31.142Z,43.33
2023-02-13T16:20:01.917Z,43.23
2023-02-13T16:22:39.338Z,43.40
2023-02-13T16:25:28.616Z,43.50
2023-02-13T16:28:01.187Z,43.38
2023-02-13T16:30:27.608Z,43.38
2023-02-13T16:33:15.134Z,43.79
2023-02-13T16:35:49.130Z,43.71
2023-02-13T16:38:39.926Z,44.11
2023-02-13T16:41:22.068Z,44.02
2023-02-13T16:43:53.952Z,44.29
2023-02-13T16:46:32.523Z,44.03
2023-02-13T16:49:01.654Z,44.17
2023-02-13T16:51:52.460Z,43.95
2023-02-13T16:54:26.691Z,44.14
2023-02-13T16:57:22.972Z,44.52
2023-02-13T17:00:01.789Z,44.50
2023-02-13T17:02:30.866Z,44.29
2023-02-13T17:05:10.140Z,44.60
2023-02-13T17:07:45.169Z,44.67
2023-02-13T17:10:33.821Z,44.82
2023-02-13T17:13:13.777Z,44.60
2023-02-13T17:15:45.753Z,44.90
2023-02-13T17:18:12.392Z,44.62
2023-02-13T17:20:41.795Z,44.71
2023-02-13T17:23:25.978Z,45.47
2023-02-13T17:25:54.045Z,44.86
2023-02-13T17:28:26.739Z,45.02
2023-02-13T17:30:57.265Z,45.11
2023-02-13T17:33:25.743Z,45.56
2023-02-13T17:35:53.216Z,45.19
2023-02-13T17:38:20.811Z,45.15
2023-02-13T17:40:47.616Z,45.37
2023-02-13T17:43:17.033Z,45.67
2023-02-13T17:45:44.245Z,45.33
2023-02-13T17:48:10.835Z,45.95
2023-02-13T17:50:38.141Z,45.83
2023-02-13T17:53:08.132Z,46.23
2023-02-13T17:55:35.323Z,46.10
2023-02-13T17:58:02.632Z,45.38
2023-02-13T18:00:32.520Z,46.04
2023-02-13T18:03:00.372Z,45.61
2023-02-13T18:05:28.275Z,45.89
2023-02-13T18:07:55.215Z,46.22
2023-02-13T18:10:26.749Z,46.52
2023-02-13T18:12:54.434Z,45.85
2023-02-13T18:15:21.365Z,46.32
2023-02-13T18:17:48.351Z,46.25
2023-02-13T18:20:17.825Z,46.48
2023-02-13T18:22:44.641Z,46.28
2023-02-13T18:25:11.687Z,46.58
2023-02-13T18:27:38.293Z,46.38
2023-02-13T18:30:05.624Z,46.86
2023-02-13T18:32:32.338Z,46.56
2023-02-13T18:34:58.896Z,46.80
2023-02-13T18:37:28.568Z,46.94
2023-02-13T18:39:55.797Z,46.82
2023-02-13T18:42:22.485Z,46.89
2023-02-13T18:44:48.942Z,47.16
2023-02-13T18:47:15.316Z,47.38
2023-02-13T18:49:43.257Z,47.04
2023-02-13T18:52:10.955Z,46.79
2023-02-13T18:54:37.446Z,46.76
2023-02-13T18:57:04.192Z,46.93
2023-02-13T18:59:30.538Z,47.36
2023-02-13T19:01:56.987Z,47.33
2023-02-13T19:04:25.140Z,47.24
2023-02-13T19:06:51.650Z,47.10
2023-02-13T19:09:18.205Z,46.83
2023-02-13T19:11:44.845Z,47.03
2023-02-13T19:14:13.107Z,47.15
2023-02-13T19:16:40.239Z,46.85
2023-02-13T19:19:08.553Z,47.18
2023-02-13T19:21:37.300Z,47.20
2023-02-13T19:24:05.786Z,46.94
2023-02-13T19:26:32.104Z,48.02
2023-02-13T19:28:59.169Z,46.61
2023-02-13T19:31:29.121Z,46.58
2023-02-13T19:33:56.961Z,46.78
2023-02-13T19:36:25.840Z,47.40
2023-02-13T19:39:00.091Z,47.35
2023-02-13T19:41:27.142Z,46.59
2023-02-13T19:43:54.767Z,47.35
2023-02-13T19:46:25.866Z,47.48
2023-02-13T19:48:52.652Z,46.86
2023-02-13T19:51:22.349Z,47.38
2023-02-13T19:53:48.911Z,47.07
2023-02-13T19:56:15.290Z,47.37
2023-02-13T19:58:43.039Z,47.64
2023-02-13T20:01:15.041Z,47.89
2023-02-13T20:03:41.933Z,47.43
2023-02-13T20:06:13.966Z,47.85
2023-02-13T20:08:42.961Z,47.67
2023-02-13T20:11:13.732Z,47.75
2023-02-13T20:13:40.532Z,47.71
2023-02-13T20:16:09.410Z,47.79
2023-02-13T20:18:37.243Z,48.31
2023-02-13T20:21:07.202Z,48.24
2023-02-13T20:23:34.692Z,48.06
2023-02-13T20:26:09.067Z,48.39
2023-02-13T20:28:35.567Z,48.17
2023-02-13T20:31:03.769Z,48.26
2023-02-13T20:33:30.840Z,48.41
2023-02-13T20:35:57.247Z,48.06
2023-02-13T20:38:23.658Z,47.98
2023-02-13T20:40:50.132Z,47.68
2023-02-13T20:43:16.691Z,48.29
2023-02-13T20:45:43.161Z,47.87
2023-02-13T20:48:09.744Z,47.59
2023-02-13T20:50:36.078Z,47.79
2023-02-13T20:53:02.452Z,47.93
2023-02-13T20:55:28.751Z,48.13
2023-02-13T20:57:55.180Z,48.02
2023-02-13T21:00:21.752Z,48.08
2023-02-13T21:02:48.380Z,47.95
2023-02-13T21:05:15.174Z,48.09
2023-02-13T21:07:41.587Z,48.00
2023-02-13T21:10:08.286Z,47.97
2023-02-13T21:12:34.950Z,48.06
2023-02-13T21:15:01.427Z,48.41
2023-02-13T21:17:27.801Z,48.11
2023-02-13T21:19:54.404Z,47.99
2023-02-13T21:22:20.860Z,47.97
2023-02-13T21:24:49.818Z,48.21
2023-02-13T21:27:16.234Z,48.03
2023-02-13T21:29:42.632Z,47.74
2023-02-13T21:32:09.142Z,48.18
2023-02-13T21:34:36.310Z,47.86
2023-02-13T21:37:02.731Z,48.06
2023-02-13T21:39:29.311Z,48.30
2023-02-13T21:41:55.671Z,47.92
2023-02-13T21:44:22.299Z,48.09
2023-02-13T21:46:48.702Z,48.20
2023-02-13T21:49:17.813Z,48.20
2023-02-13T21:51:45.177Z,47.99
2023-02-13T21:54:12.118Z,48.83
2023-02-13T21:56:40.754Z,48.56
2023-02-13T21:59:07.754Z,48.25
2023-02-13T22:01:36.631Z,48.22
2023-02-13T22:04:06.704Z,48.28
2023-02-13T22:06:35.595Z,48.84
2023-02-13T22:09:05.831Z,48.69
2023-02-13T22:11:32.929Z,48.59
2023-02-13T22:14:02.602Z,49.01
2023-02-13T22:16:31.153Z,48.86
2023-02-13T22:18:57.935Z,49.81
2023-02-13T22:21:26.445Z,48.58
2023-02-13T22:23:53.069Z,49.42
2023-02-13T22:26:39.581Z,49.35
2023-02-13T22:29:08.429Z,48.88
2023-02-13T22:31:35.944Z,48.83
2023-02-13T22:34:05.023Z,48.51
2023-02-13T22:36:34.254Z,48.55
2023-02-13T22:39:00.822Z,49.02
2023-02-13T22:41:27.618Z,48.65
2023-02-13T22:43:54.472Z,48.68
2023-02-13T22:46:30.070Z,49.14
2023-02-13T22:48:56.619Z,48.54
2023-02-13T22:51:26.155Z,48.75
2023-02-13T22:53:54.632Z,48.43
2023-02-13T22:56:21.242Z,49.48
2023-02-13T22:58:47.899Z,48.79
2023-02-13T23:01:18.123Z,49.16
2023-02-13T23:03:44.706Z,48.29
2023-02-13T23:06:12.570Z,48.47
2023-02-13T23:08:39.066Z,48.95
2023-02-13T23:11:32.263Z,49.37
2023-02-13T23:13:59.636Z,48.95
2023-02-13T23:16:26.683Z,49.25
2023-02-13T23:18:54.824Z,48.76
2023-02-13T23:21:21.439Z,48.46
2023-02-13T23:23:48.339Z,48.54
2023-02-13T23:26:16.156Z,48.33
2023-02-13T23:28:42.731Z,49.28
2023-02-13T23:31:09.271Z,49.04
2023-02-13T23:33:35.738Z,48.62
2023-02-13T23:36:02.241Z,48.49
2023-02-13T23:38:29.597Z,48.85
2023-02-13T23:40:56.051Z,48.41
2023-02-13T23:43:22.651Z,48.75
2023-02-13T23:45:49.747Z,48.73
2023-02-13T23:48:16.133Z,48.42
2023-02-13T23:50:42.493Z,49.32
2023-02-13T23:53:09.109Z,48.78
2023-02-13T23:55:35.744Z,49.25
2023-02-13T23:58:02.309Z,48.97
